Grand Junction Regional Airport
KGJT : now visible

Airfield :











YOU CAN JOIN US ON...

 
LOGIN :

Register | Disclaimer

   EN    FR    IT 

 









Legend :    VFR   Marginal VFR   IFR   Intensive IFR   Very Intensive IFR
Visi :
Ceiling :
>= 8 km
>= 3000ft
5 to 8 km
1000 to 3000 ft
1500m to 5 km
500 to 1000 ft
800 to 1500m
200 to 500 ft
< 800m
< 200 ft
Symbols :   Thunderstorms  Fog  Heavy snow  Heavy precipitations  Wind > 20 kt






- Airport Elevation : 4858 ft
- IATA code : GJT


KGJT - Grand Junction Regional

CURRENT METAR :
  • 291323Z 10006KT 10SM BKN027 OVC039 M02/M04 A3012 RMK AO2 T10221039

EXPIRED METARs :
  • 291253Z 10007KT 7SM OVC039 M02/M04 A3012 RMK AO2 SNE12 SLP217 P0000 T10221039
  • 291153Z AUTO 11006KT 4SM -SN BR FEW043 OVC080 M02/M03 A3011 RMK AO2 SLP210 P0000 60001 70001 T10171033 10000 21017 57003
  • 291149Z AUTO 11007KT 4SM -SN BR SCT043 OVC080 M02/M03 A3011 RMK AO2 P0000
  • 291109Z AUTO 10004KT 2SM -SN BR FEW004 OVC040 M02/M03 A3012 RMK AO2 P0000 T10171028
  • 291059Z AUTO 12004KT 1 3/4SM -SN BR SCT004 OVC040 M02/M03 A3012 RMK AO2 P0000 T10171028
  • 291043Z AUTO 12003KT 5SM BR SCT004 OVC038 M02/M03 A3012 RMK AO2 T10171033

TAF KGJT
Valid from the 29 at 12:00 until the 30 at 12:00 UTC


291127Z 2912/3012 10004KT 2SM -SN BR VCSH FEW004 OVC040
FM291300 00000KT P6SM VCSH BKN050
FM291400 00000KT P6SM BKN060
FM291600 VRB03KT P6SM BKN060
FM292100 33006KT P6SM SCT080
FM300300 36005KT P6SM FEW200



MET'MAP, your aeronautical weather chart ! - Copyright ORBIFLY December 2007 - Disclaimer

ORBIFLY MET'MAP TEAM :

Programming & Development : Alexandra Zaïnal
Concept & original design : Baudouin d'Aumeries
Assistance for programming : Marc-Olivier Méhu
Technical & hardware support : Manuel Goepfert

Contact : metmap@orbifly.com




SOURCES & CREDITS :

   NOAA       Earth
Advisory